createdAt,value
2023-12-16T00:00:21.736Z,102977.64
2023-12-16T00:03:11.640Z,102969.15
2023-12-16T00:05:40.763Z,102950.93
2023-12-16T00:08:09.103Z,102952.91
2023-12-16T00:10:37.350Z,102968.52
2023-12-16T00:13:05.904Z,102965.56
2023-12-16T00:15:34.631Z,102968.34
2023-12-16T00:18:03.036Z,102973.78
2023-12-16T00:20:31.513Z,102969.05
2023-12-16T00:22:59.717Z,102970.75
2023-12-16T00:25:27.988Z,102968.63
2023-12-16T00:27:56.612Z,102964.64
2023-12-16T00:30:24.947Z,102965.27
2023-12-16T00:32:53.382Z,102971.43
2023-12-16T00:35:23.161Z,102973.24
2023-12-16T00:37:51.869Z,102976.89
2023-12-16T00:40:20.144Z,102971.83
2023-12-16T00:42:48.733Z,102969.94
2023-12-16T00:45:20.210Z,102971.14
2023-12-16T00:47:50.880Z,102977.62
2023-12-16T00:50:19.064Z,102982.33
2023-12-16T00:52:47.211Z,102992.31
2023-12-16T00:55:15.602Z,102997.16
2023-12-16T00:57:43.992Z,102999.52
2023-12-16T01:03:41.035Z,103003.95
2023-12-16T01:06:10.131Z,103004.65
2023-12-16T01:08:38.885Z,102999.80
2023-12-16T01:11:07.608Z,102998.23
2023-12-16T01:13:35.820Z,102989.52
2023-12-16T01:16:04.294Z,102985.66
2023-12-16T01:18:32.975Z,102981.66
2023-12-16T01:21:05.857Z,102974.89
2023-12-16T01:23:34.738Z,102968.86
2023-12-16T01:26:04.793Z,102958.05
2023-12-16T01:28:33.704Z,102951.20
2023-12-16T01:31:02.568Z,102953.77
2023-12-16T01:33:32.179Z,102952.64
2023-12-16T01:36:01.081Z,102956.31
2023-12-16T01:38:29.504Z,102955.59
2023-12-16T01:40:57.744Z,102951.84
2023-12-16T01:43:26.101Z,102958.48
2023-12-16T01:46:03.136Z,102972.77
2023-12-16T01:48:32.971Z,102978.67
2023-12-16T01:51:05.537Z,102987.07
2023-12-16T01:53:35.327Z,102994.20
2023-12-16T01:56:04.450Z,102990.08
2023-12-16T01:58:32.881Z,102991.77
2023-12-16T02:01:01.191Z,102991.77
2023-12-16T02:03:30.391Z,102992.97
2023-12-16T02:05:59.208Z,102992.40
2023-12-16T02:08:27.354Z,102999.70
2023-12-16T02:10:55.595Z,103012.21
2023-12-16T02:13:24.036Z,103021.17
2023-12-16T02:15:52.722Z,103016.85
2023-12-16T02:18:21.178Z,103007.44
2023-12-16T02:20:49.980Z,103001.52
2023-12-16T02:23:18.773Z,102994.21
2023-12-16T02:25:47.101Z,102993.57
2023-12-16T02:28:15.687Z,102994.02
2023-12-16T02:30:43.929Z,102983.91
2023-12-16T02:33:12.309Z,102983.97
2023-12-16T02:35:41.691Z,102982.05
2023-12-16T02:38:11.044Z,102984.13
2023-12-16T02:40:39.208Z,102982.91
2023-12-16T02:43:07.483Z,102980.76
2023-12-16T02:45:35.858Z,102979.95
2023-12-16T02:48:04.239Z,102983.73
2023-12-16T02:50:32.685Z,102986.88
2023-12-16T02:53:00.877Z,102988.55
2023-12-16T02:55:29.237Z,102985.77
2023-12-16T02:57:57.700Z,102991.89
2023-12-16T03:00:26.308Z,102989.56
2023-12-16T03:02:54.513Z,102984.04
2023-12-16T03:05:24.616Z,102984.90
2023-12-16T03:07:53.208Z,102985.39
2023-12-16T03:10:22.211Z,102979.95
2023-12-16T03:12:50.548Z,102978.36
2023-12-16T03:15:19.736Z,102976.10
2023-12-16T03:17:50.410Z,102976.38
2023-12-16T03:20:18.619Z,102977.05
2023-12-16T03:22:46.996Z,102981.27
2023-12-16T03:25:15.862Z,102982.42
2023-12-16T03:27:44.281Z,102968.67
2023-12-16T03:30:12.942Z,102966.86
2023-12-16T03:32:41.378Z,102969.57
2023-12-16T03:35:09.640Z,102969.52
2023-12-16T03:37:38.104Z,102964.16
2023-12-16T03:40:07.366Z,102966.48
2023-12-16T03:42:35.732Z,102968.80
2023-12-16T03:45:04.258Z,102972.41
2023-12-16T03:47:33.569Z,102968.17
2023-12-16T03:50:02.200Z,102968.75
2023-12-16T03:52:30.616Z,102966.92
2023-12-16T03:54:59.434Z,102966.71
2023-12-16T03:57:28.766Z,102962.84
2023-12-16T03:59:57.081Z,102956.92
2023-12-16T04:02:25.564Z,102955.04
2023-12-16T04:04:55.176Z,102946.43
2023-12-16T04:07:23.415Z,102936.61
2023-12-16T04:09:51.808Z,102929.47
2023-12-16T04:12:19.973Z,102923.10
2023-12-16T04:14:48.234Z,102916.94
2023-12-16T04:17:16.598Z,102918.63
2023-12-16T04:19:52.123Z,102920.46
2023-12-16T04:22:20.875Z,102927.45
2023-12-16T04:24:50.193Z,102934.03
2023-12-16T04:27:18.419Z,102921.52
2023-12-16T04:29:46.711Z,102909.16
2023-12-16T04:32:14.884Z,102911.27
2023-12-16T04:34:43.117Z,102910.25
2023-12-16T04:37:11.705Z,102907.87
2023-12-16T04:39:40.005Z,102901.63
2023-12-16T04:42:08.926Z,102895.39
2023-12-16T04:44:38.354Z,102903.18
2023-12-16T04:47:06.592Z,102904.17
2023-12-16T04:49:35.634Z,102905.52
2023-12-16T04:52:04.294Z,102906.30
2023-12-16T04:54:32.700Z,102908.53
2023-12-16T04:57:01.163Z,102911.48
2023-12-16T04:59:29.501Z,102917.14
2023-12-16T05:01:57.744Z,102922.30
2023-12-16T05:04:27.040Z,102929.66
2023-12-16T05:06:56.201Z,102926.02
2023-12-16T05:09:24.584Z,102928.98
2023-12-16T05:11:52.903Z,102934.02
2023-12-16T05:14:21.078Z,102927.99
2023-12-16T05:16:49.857Z,102928.84
2023-12-16T05:19:18.502Z,102933.48
2023-12-16T05:21:46.926Z,102930.73
2023-12-16T05:24:15.682Z,102925.65
2023-12-16T05:26:43.898Z,102929.44
2023-12-16T05:29:12.929Z,102930.38
2023-12-16T05:31:41.983Z,102932.83
2023-12-16T05:34:10.617Z,102931.65
2023-12-16T05:36:42.377Z,102929.98
2023-12-16T05:39:10.976Z,102928.69
2023-12-16T05:41:39.200Z,102931.63
2023-12-16T05:44:07.512Z,102938.13
2023-12-16T05:46:35.738Z,102943.16
2023-12-16T05:49:04.196Z,102937.23
2023-12-16T05:51:40.087Z,102936.33
2023-12-16T05:54:09.082Z,102938.74
2023-12-16T05:56:37.486Z,102944.66
2023-12-16T05:59:05.742Z,102951.05
2023-12-16T06:01:34.347Z,102953.00
2023-12-16T06:04:03.224Z,102956.24
2023-12-16T06:06:31.470Z,102957.41
2023-12-16T06:08:59.652Z,102956.35
2023-12-16T06:11:27.978Z,102950.52
2023-12-16T06:13:56.218Z,102948.50
2023-12-16T06:16:24.613Z,102951.23
2023-12-16T06:18:53.451Z,102952.64
2023-12-16T06:21:22.056Z,102957.39
2023-12-16T06:23:50.233Z,102956.91
2023-12-16T06:26:20.049Z,102962.56
2023-12-16T06:28:48.148Z,102964.57
2023-12-16T06:31:17.812Z,102965.73
2023-12-16T06:33:46.988Z,102965.85
2023-12-16T06:36:15.883Z,102961.65
2023-12-16T06:38:44.295Z,102960.45
2023-12-16T06:41:12.670Z,102957.96
2023-12-16T06:43:40.934Z,102958.04
2023-12-16T06:46:09.753Z,102953.69
2023-12-16T06:48:38.860Z,102952.20
2023-12-16T06:51:07.106Z,102949.56
2023-12-16T06:53:35.721Z,102953.10
2023-12-16T06:56:05.699Z,102955.27
2023-12-16T06:58:34.593Z,102955.10
2023-12-16T07:01:03.289Z,102958.25
2023-12-16T07:03:32.020Z,102967.55
2023-12-16T07:06:02.619Z,102971.98
2023-12-16T07:08:31.684Z,102981.41
2023-12-16T07:11:00.152Z,102979.05
2023-12-16T07:13:28.478Z,102978.30
2023-12-16T07:15:56.743Z,102976.49
2023-12-16T07:18:25.062Z,102978.92
2023-12-16T07:20:53.333Z,102980.13
2023-12-16T07:23:21.590Z,102984.49
2023-12-16T07:25:50.204Z,102985.34
2023-12-16T07:28:18.923Z,102992.83
2023-12-16T07:30:47.392Z,103003.15
2023-12-16T07:33:15.805Z,103010.10
2023-12-16T07:35:44.837Z,103018.96
2023-12-16T07:38:13.098Z,103028.66
2023-12-16T07:40:41.649Z,103033.14
2023-12-16T07:43:09.801Z,103033.05
2023-12-16T07:45:38.011Z,103035.36
2023-12-16T07:48:06.256Z,103045.05
2023-12-16T07:50:34.701Z,103050.14
2023-12-16T07:53:02.824Z,103053.45
2023-12-16T07:55:31.624Z,103052.80
2023-12-16T07:58:00.620Z,103052.80
2023-12-16T08:00:30.025Z,103058.74
2023-12-16T08:02:58.469Z,103064.13
2023-12-16T08:05:26.902Z,103063.86
2023-12-16T08:07:55.617Z,103065.64
2023-12-16T08:10:23.954Z,103072.09
2023-12-16T08:12:53.405Z,103074.21
2023-12-16T08:15:21.778Z,103071.27
2023-12-16T08:17:50.252Z,103075.48
2023-12-16T08:20:18.601Z,103081.95
2023-12-16T08:22:46.708Z,103080.48
2023-12-16T08:25:15.319Z,103083.67
2023-12-16T08:27:43.903Z,103086.61
2023-12-16T08:30:12.680Z,103083.46
2023-12-16T08:32:41.305Z,103085.20
2023-12-16T08:35:09.748Z,103084.48
2023-12-16T08:37:38.291Z,103088.58
2023-12-16T08:40:08.096Z,103088.54
2023-12-16T08:42:36.434Z,103091.13
2023-12-16T08:45:04.893Z,103093.19
2023-12-16T08:47:33.398Z,103094.39
2023-12-16T08:50:01.591Z,103100.36
2023-12-16T08:52:35.158Z,103107.61
2023-12-16T08:55:05.501Z,103109.25
2023-12-16T08:57:33.966Z,103111.85
2023-12-16T09:00:02.337Z,103115.88
2023-12-16T09:02:30.737Z,103116.86
2023-12-16T09:04:59.156Z,103117.68
2023-12-16T09:07:27.500Z,103115.70
2023-12-16T09:09:55.729Z,103116.43
2023-12-16T09:12:24.101Z,103116.41
2023-12-16T09:14:53.325Z,103120.61
2023-12-16T09:17:21.612Z,103126.98
2023-12-16T09:19:50.656Z,103128.73
2023-12-16T09:22:19.302Z,103128.25
2023-12-16T09:24:48.758Z,103130.98
2023-12-16T09:27:16.869Z,103134.47
2023-12-16T09:29:45.298Z,103139.79
2023-12-16T09:32:13.484Z,103144.56
2023-12-16T09:34:42.245Z,103147.67
2023-12-16T09:37:10.817Z,103153.06
2023-12-16T09:39:40.385Z,103160.39
2023-12-16T09:42:08.766Z,103154.30
2023-12-16T09:44:38.971Z,103151.31
2023-12-16T09:47:07.422Z,103154.25
2023-12-16T09:49:37.579Z,103153.14
2023-12-16T09:52:06.596Z,103155.11
2023-12-16T09:54:34.795Z,103156.91
2023-12-16T09:57:04.506Z,103152.81
2023-12-16T09:59:36.853Z,103154.96
2023-12-16T10:02:14.090Z,103152.63
2023-12-16T10:04:43.332Z,103146.71
2023-12-16T10:07:11.767Z,103145.29
2023-12-16T10:09:40.040Z,103149.77
2023-12-16T10:12:08.255Z,103149.26
2023-12-16T10:14:50.533Z,103146.73
2023-12-16T10:17:21.305Z,103146.58
2023-12-16T10:19:50.092Z,103148.29
2023-12-16T10:22:20.032Z,103149.68
2023-12-16T10:24:48.841Z,103148.59
2023-12-16T10:27:17.177Z,103146.93
2023-12-16T10:29:58.017Z,103141.81
2023-12-16T10:32:32.225Z,103139.14
2023-12-16T10:35:01.059Z,103144.33
2023-12-16T10:37:30.142Z,103142.06
2023-12-16T10:39:58.902Z,103144.61
2023-12-16T10:42:27.908Z,103145.16
2023-12-16T10:44:56.109Z,103149.10
2023-12-16T10:47:27.987Z,103145.60
2023-12-16T10:49:59.462Z,103147.23
2023-12-16T10:52:33.034Z,103147.50
2023-12-16T10:55:05.946Z,103150.34
2023-12-16T10:57:59.704Z,103145.95
2023-12-16T11:00:31.888Z,103150.07
2023-12-16T11:03:29.600Z,103153.44
2023-12-16T11:06:03.872Z,103151.48
2023-12-16T11:08:33.941Z,103148.44
2023-12-16T11:11:04.159Z,103149.34
2023-12-16T11:13:35.807Z,103146.31
2023-12-16T11:16:15.247Z,103150.91
2023-12-16T11:18:49.487Z,103151.09
2023-12-16T11:21:21.396Z,103150.80
2023-12-16T11:23:50.403Z,103148.63
2023-12-16T11:26:18.734Z,103148.35
2023-12-16T11:28:54.164Z,103145.23
2023-12-16T11:31:22.525Z,103141.90
2023-12-16T11:33:51.504Z,103142.13
2023-12-16T11:36:49.452Z,103138.04
2023-12-16T11:39:37.760Z,103133.99
2023-12-16T11:42:09.043Z,103134.96
2023-12-16T11:44:48.719Z,103127.59
2023-12-16T11:47:22.396Z,103119.35
2023-12-16T11:49:52.457Z,103115.80
2023-12-16T11:52:23.701Z,103117.60
2023-12-16T11:54:58.576Z,103116.94
2023-12-16T11:57:28.594Z,103113.48
2023-12-16T11:59:58.538Z,103112.16
2023-12-16T12:02:27.412Z,103107.91
2023-12-16T12:04:56.358Z,103104.16
2023-12-16T12:07:25.757Z,103106.36
2023-12-16T12:09:55.036Z,103107.23
2023-12-16T12:12:23.214Z,103106.69
2023-12-16T12:14:51.362Z,103098.68
2023-12-16T12:17:20.297Z,103098.30
2023-12-16T12:19:49.697Z,103100.74
2023-12-16T12:22:21.731Z,103095.05
2023-12-16T12:24:50.282Z,103091.50
2023-12-16T12:27:19.986Z,103088.63
2023-12-16T12:30:04.626Z,103083.16
2023-12-16T12:32:34.485Z,103085.21
2023-12-16T12:35:08.851Z,103085.38
2023-12-16T12:37:39.614Z,103085.77
2023-12-16T12:40:18.181Z,103082.00
2023-12-16T12:42:54.980Z,103077.73
2023-12-16T12:45:37.435Z,103075.42
2023-12-16T12:48:17.889Z,103065.48
2023-12-16T12:50:48.353Z,103071.66
2023-12-16T12:53:23.762Z,103069.02
2023-12-16T12:55:56.134Z,103068.36
2023-12-16T12:58:29.152Z,103057.23
2023-12-16T13:01:02.573Z,103053.04
2023-12-16T13:03:33.142Z,103050.17
2023-12-16T13:06:07.456Z,103047.55
2023-12-16T13:08:38.104Z,103043.48
2023-12-16T13:11:07.383Z,103043.65
2023-12-16T13:13:38.566Z,103045.63
2023-12-16T13:16:07.445Z,103040.78
2023-12-16T13:18:36.871Z,103041.23
2023-12-16T13:21:06.651Z,103039.54
2023-12-16T13:23:34.902Z,103037.70
2023-12-16T13:26:06.783Z,103035.25
2023-12-16T13:28:35.134Z,103027.42
2023-12-16T13:31:06.626Z,103024.70
2023-12-16T13:33:37.263Z,103022.91
2023-12-16T13:36:32.549Z,103021.33
2023-12-16T13:38:55.842Z,103019.50
2023-12-16T13:41:25.251Z,103020.05
2023-12-16T13:43:53.445Z,103017.27
2023-12-16T13:46:21.699Z,103014.73
2023-12-16T13:48:51.692Z,103010.05
2023-12-16T13:51:20.363Z,103012.77
2023-12-16T13:53:49.091Z,103010.08
2023-12-16T13:56:18.560Z,103013.34
2023-12-16T13:58:46.872Z,103015.30
2023-12-16T14:01:15.194Z,103009.86
2023-12-16T14:03:44.458Z,103005.13
2023-12-16T14:06:13.016Z,103008.72
2023-12-16T14:08:41.345Z,103006.00
2023-12-16T14:11:09.559Z,103005.81
2023-12-16T14:13:38.158Z,103005.30
2023-12-16T14:16:08.214Z,103004.70
2023-12-16T14:18:37.359Z,103004.10
2023-12-16T14:21:07.113Z,103001.78
2023-12-16T14:23:36.258Z,102999.80
2023-12-16T14:26:05.944Z,102998.00
2023-12-16T14:28:34.432Z,102996.50
2023-12-16T14:31:03.521Z,102991.91
2023-12-16T14:33:32.144Z,102993.95
2023-12-16T14:36:01.163Z,102996.95
2023-12-16T14:38:30.355Z,102995.42
2023-12-16T14:40:58.659Z,102998.15
2023-12-16T14:43:27.442Z,102998.61
2023-12-16T14:45:55.861Z,103003.62
2023-12-16T14:48:25.661Z,103002.64
2023-12-16T14:50:54.613Z,103000.38
2023-12-16T14:53:22.938Z,103003.56
2023-12-16T14:55:51.755Z,103003.68
2023-12-16T14:58:19.896Z,103004.66
2023-12-16T15:00:48.341Z,103005.48
2023-12-16T15:03:17.882Z,103005.52
2023-12-16T15:05:46.658Z,103011.11
2023-12-16T15:08:15.643Z,103010.20
2023-12-16T15:10:43.986Z,103007.66
2023-12-16T15:13:12.706Z,103003.69
2023-12-16T15:15:41.155Z,103004.55
2023-12-16T15:18:09.526Z,103005.98
2023-12-16T15:20:39.046Z,103001.05
2023-12-16T15:23:08.333Z,102998.59
2023-12-16T15:25:38.017Z,102998.73
2023-12-16T15:28:06.785Z,102997.71
2023-12-16T15:30:35.429Z,102994.39
2023-12-16T15:33:04.588Z,102988.54
2023-12-16T15:35:33.761Z,102989.56
2023-12-16T15:38:03.421Z,102989.19
2023-12-16T15:40:31.777Z,102985.79
2023-12-16T15:43:00.763Z,102985.77
2023-12-16T15:45:29.249Z,102989.45
2023-12-16T15:47:58.400Z,102985.67
2023-12-16T15:50:26.737Z,102988.42
2023-12-16T15:52:55.181Z,102985.45
2023-12-16T15:55:23.386Z,102986.98
2023-12-16T15:57:51.912Z,102988.79
2023-12-16T16:00:20.322Z,102989.72
2023-12-16T16:02:48.746Z,102991.48
2023-12-16T16:05:17.326Z,102986.82
2023-12-16T16:07:46.264Z,102986.10
2023-12-16T16:10:15.760Z,102980.83
2023-12-16T16:12:45.299Z,102976.52
2023-12-16T16:15:17.615Z,102969.84
2023-12-16T16:17:48.387Z,102973.52
2023-12-16T16:20:18.338Z,102972.89
2023-12-16T16:22:49.945Z,102969.69
2023-12-16T16:25:18.626Z,102975.21
2023-12-16T16:27:47.474Z,102974.70
2023-12-16T16:30:16.016Z,102979.29
2023-12-16T16:32:45.581Z,102978.07
2023-12-16T16:35:13.813Z,102976.50
2023-12-16T16:37:43.122Z,102979.52
2023-12-16T16:40:12.070Z,102979.52
2023-12-16T16:42:40.670Z,102976.02
2023-12-16T16:45:10.406Z,102974.90
2023-12-16T16:47:39.191Z,102980.59
2023-12-16T16:50:08.448Z,102980.95
2023-12-16T16:52:37.253Z,102981.19
2023-12-16T16:55:09.370Z,102981.66
2023-12-16T16:57:38.365Z,102979.15
2023-12-16T17:00:08.890Z,102981.26
2023-12-16T17:02:38.892Z,102982.42
2023-12-16T17:05:08.308Z,102993.23
2023-12-16T17:07:36.960Z,102994.46
2023-12-16T17:10:06.020Z,102988.47
2023-12-16T17:12:34.870Z,102999.58
2023-12-16T17:15:03.265Z,103001.04
2023-12-16T17:17:33.856Z,103004.55
2023-12-16T17:20:02.305Z,103005.45
2023-12-16T17:22:31.213Z,103008.28
2023-12-16T17:25:00.499Z,103007.36
2023-12-16T17:27:30.214Z,103004.84
2023-12-16T17:29:59.118Z,103010.09
2023-12-16T17:32:27.593Z,103004.86
2023-12-16T17:34:56.805Z,103003.83
2023-12-16T17:37:25.814Z,103005.40
2023-12-16T17:39:54.127Z,103009.95
2023-12-16T17:42:22.376Z,103007.23
2023-12-16T17:44:51.367Z,103010.89
2023-12-16T17:47:20.176Z,103012.47
2023-12-16T17:49:48.570Z,103017.23
2023-12-16T17:52:16.848Z,103021.91
2023-12-16T17:54:45.647Z,103018.95
2023-12-16T17:57:14.440Z,103018.36
2023-12-16T17:59:44.184Z,103021.52
2023-12-16T18:02:12.979Z,103024.48
2023-12-16T18:04:41.355Z,103025.31
2023-12-16T18:07:09.814Z,103027.41
2023-12-16T18:09:38.265Z,103027.66
2023-12-16T18:12:06.888Z,103029.55
2023-12-16T18:14:35.751Z,103034.47
2023-12-16T18:17:04.243Z,103036.77
2023-12-16T18:19:33.050Z,103039.99
2023-12-16T18:22:01.247Z,103040.55
2023-12-16T18:24:29.610Z,103042.13
2023-12-16T18:26:58.732Z,103048.02
2023-12-16T18:29:27.402Z,103056.88
2023-12-16T18:31:56.214Z,103051.69
2023-12-16T18:34:25.107Z,103055.40
2023-12-16T18:36:53.700Z,103053.33
2023-12-16T18:39:22.899Z,103056.97
2023-12-16T18:41:51.039Z,103057.34
2023-12-16T18:44:19.792Z,103055.76
2023-12-16T18:46:49.313Z,103058.48
2023-12-16T18:49:18.155Z,103061.30
2023-12-16T18:51:46.502Z,103062.10
2023-12-16T18:54:15.491Z,103064.61
2023-12-16T18:56:44.761Z,103067.33
2023-12-16T18:59:13.778Z,103070.06
2023-12-16T19:01:42.029Z,103072.95
2023-12-16T19:04:11.017Z,103071.41
2023-12-16T19:06:39.350Z,103079.52
2023-12-16T19:09:08.803Z,103079.91
2023-12-16T19:11:37.168Z,103083.13
2023-12-16T19:14:06.173Z,103084.92
2023-12-16T19:16:35.686Z,103082.86
2023-12-16T19:19:04.694Z,103085.21
2023-12-16T19:21:33.659Z,103092.96
2023-12-16T19:24:01.928Z,103090.94
2023-12-16T19:26:30.624Z,103099.37
2023-12-16T19:28:59.413Z,103104.58
2023-12-16T19:31:28.533Z,103103.45
2023-12-16T19:33:57.492Z,103104.11
2023-12-16T19:36:26.633Z,103099.56
2023-12-16T19:38:58.183Z,103097.27
2023-12-16T19:41:26.796Z,103098.81
2023-12-16T19:43:56.139Z,103097.20
2023-12-16T19:46:26.034Z,103100.77
2023-12-16T19:48:54.893Z,103100.80
2023-12-16T19:51:23.545Z,103102.70
2023-12-16T19:53:51.949Z,103101.86
2023-12-16T19:56:20.394Z,103105.53
2023-12-16T19:58:48.782Z,103106.69
2023-12-16T20:01:17.235Z,103106.22
2023-12-16T20:03:46.768Z,103109.77
2023-12-16T20:06:15.627Z,103111.12
2023-12-16T20:08:44.346Z,103108.77
2023-12-16T20:11:13.930Z,103109.73
2023-12-16T20:13:42.377Z,103109.64
2023-12-16T20:16:10.660Z,103116.09
2023-12-16T20:18:39.210Z,103120.42
2023-12-16T20:21:07.845Z,103120.60
2023-12-16T20:23:36.097Z,103122.29
2023-12-16T20:26:04.957Z,103123.62
2023-12-16T20:28:33.335Z,103129.27
2023-12-16T20:31:02.010Z,103130.41
2023-12-16T20:33:30.457Z,103128.59
2023-12-16T20:35:59.039Z,103127.83
2023-12-16T20:38:27.270Z,103127.68
2023-12-16T20:40:56.246Z,103129.16
2023-12-16T20:43:25.008Z,103135.86
2023-12-16T20:45:53.447Z,103136.91
2023-12-16T20:48:22.796Z,103140.09
2023-12-16T20:50:51.354Z,103141.13
2023-12-16T20:53:19.930Z,103142.62
2023-12-16T20:55:48.327Z,103140.59
2023-12-16T20:58:17.038Z,103135.05
2023-12-16T21:00:45.665Z,103136.13
2023-12-16T21:03:14.569Z,103140.02
2023-12-16T21:05:44.926Z,103136.60
2023-12-16T21:08:13.636Z,103135.01
2023-12-16T21:10:41.974Z,103135.29
2023-12-16T21:13:11.490Z,103136.15
2023-12-16T21:15:41.190Z,103134.20
2023-12-16T21:18:09.755Z,103134.29
2023-12-16T21:20:38.164Z,103129.67
2023-12-16T21:23:07.120Z,103133.64
2023-12-16T21:25:35.306Z,103129.83
2023-12-16T21:28:03.648Z,103130.72
2023-12-16T21:30:33.316Z,103129.52
2023-12-16T21:33:02.317Z,103136.23
2023-12-16T21:35:31.568Z,103136.42
2023-12-16T21:38:00.181Z,103133.56
2023-12-16T21:40:28.336Z,103135.05
2023-12-16T21:42:56.520Z,103133.71
2023-12-16T21:45:24.745Z,103138.53
2023-12-16T21:47:53.783Z,103136.20
2023-12-16T21:50:22.976Z,103137.39
2023-12-16T21:52:51.901Z,103138.40
2023-12-16T21:55:20.219Z,103134.73
2023-12-16T21:57:49.082Z,103138.87
2023-12-16T22:00:19.426Z,103134.20
2023-12-16T22:02:47.690Z,103135.29
2023-12-16T22:05:17.333Z,103137.13
2023-12-16T22:07:45.904Z,103140.84
2023-12-16T22:10:14.474Z,103141.69
2023-12-16T22:12:43.515Z,103142.25
2023-12-16T22:15:12.957Z,103145.85
2023-12-16T22:17:41.713Z,103151.79
2023-12-16T22:20:10.904Z,103158.70
2023-12-16T22:22:39.831Z,103167.00
2023-12-16T22:25:08.694Z,103165.45
2023-12-16T22:27:38.020Z,103162.17
2023-12-16T22:30:07.840Z,103165.95
2023-12-16T22:32:36.383Z,103163.55
2023-12-16T22:35:05.831Z,103160.72
2023-12-16T22:37:35.281Z,103157.31
2023-12-16T22:40:03.559Z,103152.93
2023-12-16T22:42:32.003Z,103151.26
2023-12-16T22:45:00.398Z,103147.99
2023-12-16T22:47:28.753Z,103146.15
2023-12-16T22:49:58.222Z,103149.26
2023-12-16T22:52:27.440Z,103156.20
2023-12-16T22:54:56.775Z,103149.73
2023-12-16T22:57:25.407Z,103153.21
2023-12-16T22:59:54.248Z,103149.45
2023-12-16T23:02:22.937Z,103145.23
2023-12-16T23:04:51.215Z,103150.48
2023-12-16T23:07:19.478Z,103161.09
2023-12-16T23:09:47.677Z,103158.51
2023-12-16T23:12:16.517Z,103157.77
2023-12-16T23:14:45.397Z,103158.69
2023-12-16T23:17:13.738Z,103160.02
2023-12-16T23:19:42.570Z,103155.58
2023-12-16T23:22:11.326Z,103148.98
2023-12-16T23:24:41.470Z,103153.52
2023-12-16T23:27:11.314Z,103156.33
2023-12-16T23:29:40.946Z,103158.42
2023-12-16T23:32:09.869Z,103159.11
2023-12-16T23:34:39.619Z,103160.16
2023-12-16T23:37:09.689Z,103159.70
2023-12-16T23:39:39.195Z,103156.33
2023-12-16T23:42:08.942Z,103156.46
2023-12-16T23:44:37.948Z,103157.52
2023-12-16T23:47:07.736Z,103163.73
2023-12-16T23:49:37.294Z,103161.75
2023-12-16T23:52:05.601Z,103158.68
2023-12-16T23:54:33.808Z,103157.70
2023-12-16T23:57:02.779Z,103161.99
2023-12-16T23:59:31.467Z,103165.41
